Time;durP1;ratioP1;P1;durP2;ratioP2;P2;SDS_P1;SDS_P2;PMS_P1;PMS_P2;Temp;Humidity;BMP_temperature;BMP_pressure;BME280_temperature;BME280_humidity;BME280_pressure;Samples;Min_cycle;Max_cycle;Signal;HPM_P1;HPM_P2
2022/06/18 00:00:48;;;;;;;;;;;;;;;;;;5116004;27;1215;-77
2022/06/18 00:03:13;;;;;;;;;;;;;;;;;;5121853;27;1280;-77
2022/06/18 00:05:40;;;;;;;;;;;;;;;;;;5115352;27;1096;-76
2022/06/18 00:08:13;;;;;;;;;;;;;;;;;;5109675;27;1264;-77
2022/06/18 00:10:38;;;;;;;;;;;;;;;;;;5124245;27;1174;-77
2022/06/18 00:16:01;;;;;;;;;;;;;;;;;;5105864;28;1145;-77
2022/06/18 00:18:26;;;;;;;;;;;;;;;;;;5090449;27;1889;-78
2022/06/18 00:20:52;;;;;;;;;;;;;;;;;;5126827;27;1183;-77
2022/06/18 00:23:18;;;;;;;;;;;;;;;;;;5126876;27;1293;-77
2022/06/18 00:25:45;;;;;;;;;;;;;;;;;;5103761;27;1119;-75
2022/06/18 00:28:21;;;;;;;;;;;;;;;;;;5121553;27;1310;-76
2022/06/18 00:30:47;;;;;;;;;;;;;;;;;;5113485;27;1127;-76
2022/06/18 00:33:13;;;;;;;;;;;;;;;;;;5115397;27;1420;-76
2022/06/18 00:35:38;;;;;;;;;;;;;;;;;;5113724;27;1188;-76
2022/06/18 00:38:05;;;;;;;;;;;;;;;;;;5108262;27;1964;-76
2022/06/18 00:40:38;;;;;;;;;;;;;;;;;;5124735;27;1163;-76
2022/06/18 00:43:25;;;;;;;;;;;;;;;;;;5122975;27;1248;-76
2022/06/18 00:45:52;;;;;;;;;;;;;;;;;;5123874;27;1225;-76
2022/06/18 00:48:23;;;;;;;;;;;;;;;;;;5108868;27;1319;-76
2022/06/18 00:50:55;;;;;;;;;;;;;;;;;;5130169;27;1053;-76
2022/06/18 00:53:28;;;;;;;;;;;;;;;;;;5116279;27;1131;-76
2022/06/18 00:56:22;;;;;;;;;;;;;;;;;;5127736;27;1155;-76
2022/06/18 00:58:50;;;;;;;;;;;;;;;;;;5098530;27;1918;-76
2022/06/18 01:01:22;;;;;;;;;;;;;;;;;;5131965;27;1147;-77
2022/06/18 01:03:49;;;;;;;;;;;;;;;;;;5124561;27;1391;-76
2022/06/18 01:06:27;;;;;;;;;;;;;;;;;;5128463;27;1268;-76
2022/06/18 01:08:58;;;;;;;;;;;;;;;;;;5128592;27;1281;-76
2022/06/18 01:11:26;;;;;;;;;;;;;;;;;;5126308;27;1309;-76
2022/06/18 01:13:52;;;;;;;;;;;;;;;;;;5108371;27;1262;-76
2022/06/18 01:16:18;;;;;;;;;;;;;;;;;;5101732;27;1223;-76
2022/06/18 01:18:45;;;;;;;;;;;;;;;;;;5111162;27;1894;-76
2022/06/18 01:21:17;;;;;;;;;;;;;;;;;;5127239;27;1155;-76
2022/06/18 01:23:57;;;;;;;;;;;;;;;;;;5135865;27;1099;-76
2022/06/18 01:26:27;;;;;;;;;;;;;;;;;;5108187;27;1250;-75
2022/06/18 01:28:52;;;;;;;;;;;;;;;;;;5088284;27;1183;-75
2022/06/18 01:31:18;;;;;;;;;;;;;;;;;;5098436;27;1203;-75
2022/06/18 01:33:43;;;;;;;;;;;;;;;;;;5138898;27;1155;-77
2022/06/18 01:36:10;;;;;;;;;;;;;;;;;;5112835;27;1212;-76
2022/06/18 01:38:38;;;;;;;;;;;;;;;;;;5128222;27;1957;-75
2022/06/18 01:44:01;;;;;;;;;;;;;;;;;;5139614;27;1012;-75
2022/06/18 01:46:29;;;;;;;;;;;;;;;;;;5113412;27;1258;-77
2022/06/18 01:48:55;;;;;;;;;;;;;;;;;;5112718;27;1194;-75
2022/06/18 01:51:23;;;;;;;;;;;;;;;;;;5104202;27;1313;-77
2022/06/18 01:54:07;;;;;;;;;;;;;;;;;;5105742;27;1522;-78
2022/06/18 01:56:35;;;;;;;;;;;;;;;;;;5107149;27;1306;-76
2022/06/18 01:59:03;;;;;;;;;;;;;;;;;;5132653;27;1973;-75
2022/06/18 02:01:32;;;;;;;;;;;;;;;;;;5136734;27;1194;-76
2022/06/18 02:03:59;;;;;;;;;;;;;;;;;;5129611;27;1123;-76
2022/06/18 02:06:25;;;;;;;;;;;;;;;;;;5114355;27;1123;-76
2022/06/18 02:08:51;;;;;;;;;;;;;;;;;;5100241;27;1314;-75
2022/06/18 02:11:17;;;;;;;;;;;;;;;;;;5123265;27;1222;-75
2022/06/18 02:13:45;;;;;;;;;;;;;;;;;;5110656;27;1149;-75
2022/06/18 02:16:13;;;;;;;;;;;;;;;;;;5136974;27;1092;-75
2022/06/18 02:18:39;;;;;;;;;;;;;;;;;;5113048;27;1906;-76
2022/06/18 02:21:09;;;;;;;;;;;;;;;;;;5116136;27;1147;-77
2022/06/18 02:23:34;;;;;;;;;;;;;;;;;;5130456;27;1147;-76
2022/06/18 02:26:00;;;;;;;;;;;;;;;;;;5094707;27;1298;-77
2022/06/18 02:28:35;;;;;;;;;;;;;;;;;;5123249;27;1135;-75
2022/06/18 02:31:01;;;;;;;;;;;;;;;;;;5107399;27;1301;-75
2022/06/18 02:33:37;;;;;;;;;;;;;;;;;;5130309;27;1222;-78
2022/06/18 02:36:10;;;;;;;;;;;;;;;;;;5133067;27;1171;-75
2022/06/18 02:38:35;;;;;;;;;;;;;;;;;;5110229;27;1955;-75
2022/06/18 02:41:00;;;;;;;;;;;;;;;;;;5130842;27;1151;-76
2022/06/18 02:43:26;;;;;;;;;;;;;;;;;;5125735;27;1174;-75
2022/06/18 02:45:53;;;;;;;;;;;;;;;;;;5109764;27;1345;-77
2022/06/18 02:48:18;;;;;;;;;;;;;;;;;;5131697;27;1258;-77
2022/06/18 02:50:45;;;;;;;;;;;;;;;;;;5131853;27;1257;-77
2022/06/18 02:53:11;;;;;;;;;;;;;;;;;;5133181;27;1226;-78
2022/06/18 02:55:57;;;;;;;;;;;;;;;;;;5111031;27;1213;-77
2022/06/18 02:58:24;;;;;;;;;;;;;;;;;;5119030;27;1921;-77
2022/06/18 03:00:54;;;;;;;;;;;;;;;;;;5135483;27;1313;-77
2022/06/18 03:03:21;;;;;;;;;;;;;;;;;;5130206;27;1285;-77
2022/06/18 03:05:46;;;;;;;;;;;;;;;;;;5123215;27;1217;-75
2022/06/18 03:08:12;;;;;;;;;;;;;;;;;;5133078;27;1186;-77
2022/06/18 03:13:22;;;;;;;;;;;;;;;;;;5134492;27;1011;-75
2022/06/18 03:15:50;;;;;;;;;;;;;;;;;;5147793;27;1166;-75
2022/06/18 03:18:17;;;;;;;;;;;;;;;;;;5132933;27;1944;-75
2022/06/18 03:20:42;;;;;;;;;;;;;;;;;;5131918;27;1317;-75
2022/06/18 03:23:13;;;;;;;;;;;;;;;;;;5130842;27;1233;-75
2022/06/18 03:25:39;;;;;;;;;;;;;;;;;;5126840;27;1351;-75
2022/06/18 03:28:04;;;;;;;;;;;;;;;;;;5121143;27;1156;-75
2022/06/18 03:30:30;;;;;;;;;;;;;;;;;;5127711;27;1450;-75
2022/06/18 03:32:55;;;;;;;;;;;;;;;;;;5112124;27;1170;-75
2022/06/18 03:35:20;;;;;;;;;;;;;;;;;;5124610;27;1377;-75
2022/06/18 03:37:45;;;;;;;;;;;;;;;;;;5119398;27;1889;-75
2022/06/18 03:40:12;;;;;;;;;;;;;;;;;;5130756;27;1336;-75
2022/06/18 03:42:38;;;;;;;;;;;;;;;;;;5116742;27;1204;-75
2022/06/18 03:45:04;;;;;;;;;;;;;;;;;;5118635;27;1413;-75
2022/06/18 03:47:29;;;;;;;;;;;;;;;;;;5129840;27;1215;-75
2022/06/18 03:49:55;;;;;;;;;;;;;;;;;;5123829;27;1143;-77
2022/06/18 03:52:20;;;;;;;;;;;;;;;;;;5111663;27;1211;-77
2022/06/18 03:54:45;;;;;;;;;;;;;;;;;;5110632;27;1151;-77
2022/06/18 03:57:14;;;;;;;;;;;;;;;;;;5097870;27;1187;-77
2022/06/18 03:59:41;;;;;;;;;;;;;;;;;;5116089;27;1906;-77
2022/06/18 04:02:07;;;;;;;;;;;;;;;;;;5108901;27;1174;-77
2022/06/18 04:04:32;;;;;;;;;;;;;;;;;;5126465;27;1222;-77
2022/06/18 04:06:57;;;;;;;;;;;;;;;;;;5109858;27;1273;-77
2022/06/18 04:09:23;;;;;;;;;;;;;;;;;;5117204;27;1285;-77
2022/06/18 04:11:48;;;;;;;;;;;;;;;;;;5087657;27;1283;-77
2022/06/18 04:14:13;;;;;;;;;;;;;;;;;;5110050;27;1186;-77
2022/06/18 04:16:38;;;;;;;;;;;;;;;;;;5106434;27;1011;-77
2022/06/18 04:19:04;;;;;;;;;;;;;;;;;;5102849;27;1906;-77
2022/06/18 04:21:30;;;;;;;;;;;;;;;;;;5128370;27;1368;-77
2022/06/18 04:23:55;;;;;;;;;;;;;;;;;;5127875;27;1285;-77
2022/06/18 04:26:22;;;;;;;;;;;;;;;;;;5110321;27;1227;-76
2022/06/18 04:28:48;;;;;;;;;;;;;;;;;;5125987;27;1265;-76
2022/06/18 04:31:13;;;;;;;;;;;;;;;;;;5089588;27;1254;-77
2022/06/18 04:33:39;;;;;;;;;;;;;;;;;;5090440;27;1204;-77
2022/06/18 04:36:04;;;;;;;;;;;;;;;;;;5111060;27;1190;-77
2022/06/18 04:38:29;;;;;;;;;;;;;;;;;;5107627;27;1950;-77
2022/06/18 04:40:54;;;;;;;;;;;;;;;;;;5115508;27;1415;-77
2022/06/18 04:43:20;;;;;;;;;;;;;;;;;;5092459;27;1167;-77
2022/06/18 04:45:48;;;;;;;;;;;;;;;;;;5110059;27;1166;-77
2022/06/18 04:48:14;;;;;;;;;;;;;;;;;;5142121;27;1147;-77
2022/06/18 04:50:40;;;;;;;;;;;;;;;;;;5129675;27;1159;-77
2022/06/18 04:53:06;;;;;;;;;;;;;;;;;;5124417;27;1198;-77
2022/06/18 04:55:31;;;;;;;;;;;;;;;;;;5110524;27;1237;-77
2022/06/18 04:57:56;;;;;;;;;;;;;;;;;;5118394;27;1975;-77
2022/06/18 05:00:22;;;;;;;;;;;;;;;;;;5092944;27;1457;-77
2022/06/18 05:02:48;;;;;;;;;;;;;;;;;;5119107;27;1182;-77
2022/06/18 05:05:19;;;;;;;;;;;;;;;;;;5115583;27;1220;-77
2022/06/18 05:07:45;;;;;;;;;;;;;;;;;;5129941;27;1175;-77
2022/06/18 05:10:11;;;;;;;;;;;;;;;;;;5106007;27;1155;-77
2022/06/18 05:12:36;;;;;;;;;;;;;;;;;;5103396;27;1145;-77
2022/06/18 05:15:02;;;;;;;;;;;;;;;;;;5122128;27;1127;-77
2022/06/18 05:17:29;;;;;;;;;;;;;;;;;;5122446;27;1906;-77
2022/06/18 05:19:54;;;;;;;;;;;;;;;;;;5139716;27;1104;-77
2022/06/18 05:22:20;;;;;;;;;;;;;;;;;;5115621;27;1209;-77
2022/06/18 05:24:45;;;;;;;;;;;;;;;;;;5137709;27;1123;-77
2022/06/18 05:27:27;;;;;;;;;;;;;;;;;;5105482;27;1162;-77
2022/06/18 05:29:53;;;;;;;;;;;;;;;;;;5123676;27;1162;-77
2022/06/18 05:32:19;;;;;;;;;;;;;;;;;;5126330;27;1400;-77
2022/06/18 05:34:44;;;;;;;;;;;;;;;;;;5128423;27;1178;-77
2022/06/18 05:37:20;;;;;;;;;;;;;;;;;;5109129;27;1392;-77
2022/06/18 05:39:46;;;;;;;;;;;;;;;;;;5136086;27;1986;-77
2022/06/18 05:42:11;;;;;;;;;;;;;;;;;;5104032;27;1226;-77
2022/06/18 05:44:37;;;;;;;;;;;;;;;;;;5100882;27;1167;-77
2022/06/18 05:47:11;;;;;;;;;;;;;;;;;;5106003;27;1271;-77
2022/06/18 05:49:37;;;;;;;;;;;;;;;;;;5126399;27;1226;-77
2022/06/18 05:52:02;;;;;;;;;;;;;;;;;;5120967;27;1289;-77
2022/06/18 05:54:28;;;;;;;;;;;;;;;;;;5089810;27;1172;-77
2022/06/18 05:56:55;;;;;;;;;;;;;;;;;;5087386;27;1151;-77
2022/06/18 05:59:25;;;;;;;;;;;;;;;;;;5107035;27;1914;-78
2022/06/18 06:01:56;;;;;;;;;;;;;;;;;;5112574;27;1143;-77
2022/06/18 06:04:21;;;;;;;;;;;;;;;;;;5128273;27;1185;-77
2022/06/18 06:06:46;;;;;;;;;;;;;;;;;;5123106;27;1382;-77
2022/06/18 06:09:12;;;;;;;;;;;;;;;;;;5124636;27;1178;-77
2022/06/18 06:11:38;;;;;;;;;;;;;;;;;;5113238;27;1154;-77
2022/06/18 06:14:03;;;;;;;;;;;;;;;;;;5105323;27;1336;-77
2022/06/18 06:16:29;;;;;;;;;;;;;;;;;;5096610;27;1267;-77
2022/06/18 06:18:55;;;;;;;;;;;;;;;;;;5125507;27;1957;-76
2022/06/18 06:21:21;;;;;;;;;;;;;;;;;;5107326;27;1203;-77
2022/06/18 06:23:46;;;;;;;;;;;;;;;;;;5108377;27;1084;-77
2022/06/18 06:26:15;;;;;;;;;;;;;;;;;;5109045;27;1264;-78
2022/06/18 06:28:43;;;;;;;;;;;;;;;;;;5123087;27;1328;-77
2022/06/18 06:31:08;;;;;;;;;;;;;;;;;;5106999;27;1037;-77
2022/06/18 06:33:33;;;;;;;;;;;;;;;;;;5088121;27;1172;-77
2022/06/18 06:35:58;;;;;;;;;;;;;;;;;;5145091;27;1136;-77
2022/06/18 06:38:24;;;;;;;;;;;;;;;;;;5120905;28;1885;-77
2022/06/18 06:40:50;;;;;;;;;;;;;;;;;;5120891;27;1214;-77
2022/06/18 06:43:16;;;;;;;;;;;;;;;;;;5085803;28;1313;-77
2022/06/18 06:45:43;;;;;;;;;;;;;;;;;;5103950;28;1166;-76
2022/06/18 06:48:08;;;;;;;;;;;;;;;;;;5109495;27;1199;-76
2022/06/18 06:50:34;;;;;;;;;;;;;;;;;;5114276;27;1197;-76
2022/06/18 06:52:59;;;;;;;;;;;;;;;;;;5127756;27;1303;-76
2022/06/18 06:58:17;;;;;;;;;;;;;;;;;;5108515;27;1910;-77
2022/06/18 07:00:47;;;;;;;;;;;;;;;;;;5124477;27;1388;-77
2022/06/18 07:03:13;;;;;;;;;;;;;;;;;;5120240;27;1283;-77
2022/06/18 07:05:39;;;;;;;;;;;;;;;;;;5117560;27;1209;-77
2022/06/18 07:08:04;;;;;;;;;;;;;;;;;;5123087;27;1242;-77
2022/06/18 07:10:29;;;;;;;;;;;;;;;;;;5113072;27;1167;-77
2022/06/18 07:12:55;;;;;;;;;;;;;;;;;;5112203;27;1167;-77
2022/06/18 07:15:20;;;;;;;;;;;;;;;;;;5093955;28;1206;-77
2022/06/18 07:17:45;;;;;;;;;;;;;;;;;;5105894;28;2240;-76
2022/06/18 07:20:15;;;;;;;;;;;;;;;;;;5093712;27;1166;-77
2022/06/18 07:22:40;;;;;;;;;;;;;;;;;;5119315;27;1181;-77
2022/06/18 07:25:07;;;;;;;;;;;;;;;;;;5113223;27;1171;-76
2022/06/18 07:27:36;;;;;;;;;;;;;;;;;;5110277;27;1160;-79
2022/06/18 07:30:01;;;;;;;;;;;;;;;;;;5107984;27;1162;-78
2022/06/18 07:32:27;;;;;;;;;;;;;;;;;;5118052;27;1151;-77
2022/06/18 07:34:56;;;;;;;;;;;;;;;;;;5097296;27;1312;-78
2022/06/18 07:37:21;;;;;;;;;;;;;;;;;;5099251;27;1186;-78
2022/06/18 07:39:47;;;;;;;;;;;;;;;;;;5121491;27;1936;-78
2022/06/18 07:42:14;;;;;;;;;;;;;;;;;;5124532;27;1135;-79
2022/06/18 07:44:39;;;;;;;;;;;;;;;;;;5122625;27;1143;-79
2022/06/18 07:47:04;;;;;;;;;;;;;;;;;;5103922;27;1258;-79
2022/06/18 07:49:30;;;;;;;;;;;;;;;;;;5101415;27;1246;-78
2022/06/18 07:51:55;;;;;;;;;;;;;;;;;;5122098;27;1203;-78
2022/06/18 07:54:21;;;;;;;;;;;;;;;;;;5126455;27;1090;-80
2022/06/18 07:56:47;;;;;;;;;;;;;;;;;;5116364;27;1134;-79
2022/06/18 07:59:12;;;;;;;;;;;;;;;;;;5108220;27;1973;-79
2022/06/18 08:01:38;;;;;;;;;;;;;;;;;;5087686;28;1203;-79
2022/06/18 08:04:04;;;;;;;;;;;;;;;;;;5117953;27;1120;-79
2022/06/18 08:06:30;;;;;;;;;;;;;;;;;;5108950;27;1363;-79
2022/06/18 08:08:55;;;;;;;;;;;;;;;;;;5113496;27;1359;-79
2022/06/18 08:11:30;;;;;;;;;;;;;;;;;;5098786;27;1354;-79
2022/06/18 08:13:56;;;;;;;;;;;;;;;;;;5110456;27;1426;-80
2022/06/18 08:16:22;;;;;;;;;;;;;;;;;;5090669;28;1284;-79
2022/06/18 08:18:47;;;;;;;;;;;;;;;;;;5110693;27;1959;-79
2022/06/18 08:21:25;;;;;;;;;;;;;;;;;;5120173;27;1234;-79
2022/06/18 08:23:51;;;;;;;;;;;;;;;;;;5113870;27;1213;-79
2022/06/18 08:26:17;;;;;;;;;;;;;;;;;;5104052;28;1258;-79
2022/06/18 08:28:42;;;;;;;;;;;;;;;;;;5107793;27;1344;-79
2022/06/18 08:31:08;;;;;;;;;;;;;;;;;;5113118;27;1313;-79
2022/06/18 08:33:33;;;;;;;;;;;;;;;;;;5105165;27;1206;-80
2022/06/18 08:36:04;;;;;;;;;;;;;;;;;;5093859;27;1146;-82
2022/06/18 08:38:29;;;;;;;;;;;;;;;;;;5125749;27;1901;-82
2022/06/18 08:41:14;;;;;;;;;;;;;;;;;;5089197;28;1338;-80
2022/06/18 08:43:42;;;;;;;;;;;;;;;;;;5109828;27;1304;-80
2022/06/18 08:46:11;;;;;;;;;;;;;;;;;;5101869;28;1262;-76
2022/06/18 08:48:48;;;;;;;;;;;;;;;;;;5114454;27;1351;-77
2022/06/18 08:51:31;;;;;;;;;;;;;;;;;;5122502;27;1190;-76
2022/06/18 08:53:56;;;;;;;;;;;;;;;;;;5122799;27;1207;-75
2022/06/18 08:56:38;;;;;;;;;;;;;;;;;;5104245;27;1386;-75
2022/06/18 08:59:17;;;;;;;;;;;;;;;;;;5114968;27;1909;-76
2022/06/18 09:01:45;;;;;;;;;;;;;;;;;;5124803;27;742;-76
2022/06/18 09:04:29;;;;;;;;;;;;;;;;;;5125341;27;1291;-76
2022/06/18 09:07:13;;;;;;;;;;;;;;;;;;5125967;27;1315;-76
2022/06/18 09:09:38;;;;;;;;;;;;;;;;;;5125697;27;1110;-76
2022/06/18 09:12:20;;;;;;;;;;;;;;;;;;5126456;27;876;-76
2022/06/18 09:14:55;;;;;;;;;;;;;;;;;;5122764;27;1192;-75
2022/06/18 09:17:42;;;;;;;;;;;;;;;;;;5125281;27;775;-76
2022/06/18 09:20:19;;;;;;;;;;;;;;;;;;5124985;27;1530;-75
2022/06/18 09:22:47;;;;;;;;;;;;;;;;;;5127365;27;1268;-76
2022/06/18 09:25:15;;;;;;;;;;;;;;;;;;5123119;27;1161;-75
2022/06/18 09:27:49;;;;;;;;;;;;;;;;;;5125457;27;813;-76
2022/06/18 09:30:20;;;;;;;;;;;;;;;;;;5120708;27;1151;-76
2022/06/18 09:33:01;;;;;;;;;;;;;;;;;;5123656;27;1263;-76
2022/06/18 09:35:26;;;;;;;;;;;;;;;;;;5121919;27;1206;-75
2022/06/18 09:37:55;;;;;;;;;;;;;;;;;;5124604;27;1893;-76
2022/06/18 09:40:30;;;;;;;;;;;;;;;;;;5124611;27;1221;-76
2022/06/18 09:43:15;;;;;;;;;;;;;;;;;;5125779;27;1210;-75
2022/06/18 09:45:45;;;;;;;;;;;;;;;;;;5141917;27;1111;-76
2022/06/18 09:48:12;;;;;;;;;;;;;;;;;;5127614;27;1407;-75
2022/06/18 09:50:38;;;;;;;;;;;;;;;;;;5125706;27;1177;-76
2022/06/18 09:53:10;;;;;;;;;;;;;;;;;;5127587;27;1343;-75
2022/06/18 09:55:39;;;;;;;;;;;;;;;;;;5124790;27;1174;-74
2022/06/18 09:58:07;;;;;;;;;;;;;;;;;;5125815;27;1961;-76
2022/06/18 10:00:33;;;;;;;;;;;;;;;;;;5140054;27;1170;-75
2022/06/18 10:03:04;;;;;;;;;;;;;;;;;;5146503;27;1127;-76
2022/06/18 10:08:23;;;;;;;;;;;;;;;;;;5145535;27;991;-75
2022/06/18 10:10:51;;;;;;;;;;;;;;;;;;5110705;27;1251;-76
2022/06/18 10:13:19;;;;;;;;;;;;;;;;;;5125989;27;1166;-78
2022/06/18 10:15:45;;;;;;;;;;;;;;;;;;5103517;27;1401;-79
2022/06/18 10:18:17;;;;;;;;;;;;;;;;;;5132854;27;1877;-76
2022/06/18 10:20:48;;;;;;;;;;;;;;;;;;5108564;27;1187;-77
2022/06/18 10:23:32;;;;;;;;;;;;;;;;;;5109708;27;1159;-77
2022/06/18 10:26:07;;;;;;;;;;;;;;;;;;5112132;27;1198;-77
2022/06/18 10:28:44;;;;;;;;;;;;;;;;;;5145047;27;1107;-76
2022/06/18 10:31:13;;;;;;;;;;;;;;;;;;5129550;27;1139;-76
2022/06/18 10:33:57;;;;;;;;;;;;;;;;;;5129524;27;1248;-76
2022/06/18 10:36:25;;;;;;;;;;;;;;;;;;5128536;27;1257;-76
2022/06/18 10:38:56;;;;;;;;;;;;;;;;;;5136659;27;1889;-77
2022/06/18 10:41:42;;;;;;;;;;;;;;;;;;5108760;27;1287;-76
2022/06/18 10:44:14;;;;;;;;;;;;;;;;;;5081358;27;1276;-77
2022/06/18 10:46:40;;;;;;;;;;;;;;;;;;5128440;27;1236;-77
2022/06/18 10:49:06;;;;;;;;;;;;;;;;;;5129093;27;1206;-77
2022/06/18 10:51:41;;;;;;;;;;;;;;;;;;5100563;27;1242;-76
2022/06/18 10:54:06;;;;;;;;;;;;;;;;;;5117505;27;1226;-76
2022/06/18 10:56:33;;;;;;;;;;;;;;;;;;5089028;27;1292;-75
2022/06/18 10:59:02;;;;;;;;;;;;;;;;;;5106734;27;1898;-75
2022/06/18 11:01:27;;;;;;;;;;;;;;;;;;5122042;27;1236;-76
2022/06/18 11:03:55;;;;;;;;;;;;;;;;;;5117811;27;1246;-76
2022/06/18 11:06:21;;;;;;;;;;;;;;;;;;5129857;27;1257;-76
2022/06/18 11:08:51;;;;;;;;;;;;;;;;;;5099927;27;1280;-76
2022/06/18 11:11:22;;;;;;;;;;;;;;;;;;5126951;27;1213;-75
2022/06/18 11:13:49;;;;;;;;;;;;;;;;;;5123567;27;1234;-75
2022/06/18 11:16:20;;;;;;;;;;;;;;;;;;5140614;27;1103;-76
2022/06/18 11:18:50;;;;;;;;;;;;;;;;;;5128178;27;1971;-76
2022/06/18 11:21:45;;;;;;;;;;;;;;;;;;5116395;27;1256;-77
2022/06/18 11:24:10;;;;;;;;;;;;;;;;;;5103985;27;1240;-76
2022/06/18 11:26:38;;;;;;;;;;;;;;;;;;5105307;27;1297;-76
2022/06/18 11:29:10;;;;;;;;;;;;;;;;;;5123772;27;1196;-77
2022/06/18 11:31:43;;;;;;;;;;;;;;;;;;5125888;27;1227;-78
2022/06/18 11:34:24;;;;;;;;;;;;;;;;;;5143199;27;1127;-77
2022/06/18 11:36:51;;;;;;;;;;;;;;;;;;5110224;27;1407;-77
2022/06/18 11:39:22;;;;;;;;;;;;;;;;;;5130234;27;1932;-76
2022/06/18 11:41:50;;;;;;;;;;;;;;;;;;5103230;27;1115;-76
2022/06/18 11:44:19;;;;;;;;;;;;;;;;;;5122647;27;1246;-75
2022/06/18 11:47:05;;;;;;;;;;;;;;;;;;5126450;27;1282;-76
2022/06/18 11:49:33;;;;;;;;;;;;;;;;;;5128090;27;1310;-76
2022/06/18 11:52:17;;;;;;;;;;;;;;;;;;5128401;27;1131;-77
2022/06/18 11:54:56;;;;;;;;;;;;;;;;;;5108340;27;1408;-77
2022/06/18 11:57:23;;;;;;;;;;;;;;;;;;5147936;27;947;-75
2022/06/18 11:59:54;;;;;;;;;;;;;;;;;;5126664;27;1968;-77
2022/06/18 12:02:27;;;;;;;;;;;;;;;;;;5128791;27;1173;-76
2022/06/18 12:04:58;;;;;;;;;;;;;;;;;;5128640;27;1098;-75
2022/06/18 12:07:31;;;;;;;;;;;;;;;;;;5149056;27;916;-76
2022/06/18 12:09:56;;;;;;;;;;;;;;;;;;5147362;27;817;-75
2022/06/18 12:12:26;;;;;;;;;;;;;;;;;;5111626;27;1138;-78
2022/06/18 12:15:10;;;;;;;;;;;;;;;;;;5129031;27;1209;-77
2022/06/18 12:17:39;;;;;;;;;;;;;;;;;;5128681;27;1245;-76
2022/06/18 12:20:17;;;;;;;;;;;;;;;;;;5128788;27;1276;-76
2022/06/18 12:22:47;;;;;;;;;;;;;;;;;;5128346;27;1292;-76
2022/06/18 12:25:31;;;;;;;;;;;;;;;;;;5129266;27;1292;-76
2022/06/18 12:28:23;;;;;;;;;;;;;;;;;;5128579;27;1228;-76
2022/06/18 12:30:48;;;;;;;;;;;;;;;;;;5125073;27;1186;-76
2022/06/18 12:33:23;;;;;;;;;;;;;;;;;;5128868;27;1158;-75
2022/06/18 12:35:54;;;;;;;;;;;;;;;;;;5125675;27;1150;-76
2022/06/18 12:38:39;;;;;;;;;;;;;;;;;;5128077;27;1893;-76
2022/06/18 12:41:10;;;;;;;;;;;;;;;;;;5106438;27;1199;-75
2022/06/18 12:43:44;;;;;;;;;;;;;;;;;;5105628;27;1292;-75
2022/06/18 12:46:16;;;;;;;;;;;;;;;;;;5110909;27;1270;-75
2022/06/18 12:48:42;;;;;;;;;;;;;;;;;;5145658;27;1091;-75
2022/06/18 12:51:13;;;;;;;;;;;;;;;;;;5127687;27;1234;-74
2022/06/18 12:53:38;;;;;;;;;;;;;;;;;;5146519;27;975;-76
2022/06/18 12:56:11;;;;;;;;;;;;;;;;;;5127663;27;1207;-78
2022/06/18 12:58:52;;;;;;;;;;;;;;;;;;5107483;27;1983;-75
2022/06/18 13:01:28;;;;;;;;;;;;;;;;;;5132472;27;1262;-76
2022/06/18 13:04:08;;;;;;;;;;;;;;;;;;5128662;27;1105;-76
2022/06/18 13:06:52;;;;;;;;;;;;;;;;;;5125742;27;1252;-77
2022/06/18 13:09:28;;;;;;;;;;;;;;;;;;5149015;27;904;-76
2022/06/18 13:12:06;;;;;;;;;;;;;;;;;;5125664;27;1059;-77
2022/06/18 13:14:50;;;;;;;;;;;;;;;;;;5143774;27;912;-75
2022/06/18 13:17:23;;;;;;;;;;;;;;;;;;5125850;27;1183;-75
2022/06/18 13:19:52;;;;;;;;;;;;;;;;;;5127650;27;1959;-76
2022/06/18 13:22:17;;;;;;;;;;;;;;;;;;5128006;27;1164;-76
2022/06/18 13:30:44;;;;;;;;;;;;;;;;;;5104754;27;1378;-76
2022/06/18 13:33:15;;;;;;;;;;;;;;;;;;5146917;27;1138;-76
2022/06/18 13:35:44;;;;;;;;;;;;;;;;;;5123531;27;1230;-77
2022/06/18 13:38:09;;;;;;;;;;;;;;;;;;5122178;27;1943;-75
2022/06/18 13:40:34;;;;;;;;;;;;;;;;;;5123955;27;813;-75
2022/06/18 13:43:06;;;;;;;;;;;;;;;;;;5105986;27;1328;-79
2022/06/18 13:45:35;;;;;;;;;;;;;;;;;;5134784;27;1116;-81
2022/06/18 13:48:02;;;;;;;;;;;;;;;;;;5127118;27;1208;-82
2022/06/18 13:50:41;;;;;;;;;;;;;;;;;;5122824;27;1206;-79
2022/06/18 13:53:07;;;;;;;;;;;;;;;;;;5108167;27;1265;-78
2022/06/18 13:55:36;;;;;;;;;;;;;;;;;;5111849;27;1272;-76
2022/06/18 13:58:02;;;;;;;;;;;;;;;;;;5110653;27;1905;-77
2022/06/18 14:00:29;;;;;;;;;;;;;;;;;;5129471;27;750;-77
2022/06/18 14:02:57;;;;;;;;;;;;;;;;;;5110620;27;1210;-77
2022/06/18 14:05:34;;;;;;;;;;;;;;;;;;5109112;27;1418;-76
2022/06/18 14:08:00;;;;;;;;;;;;;;;;;;5111339;27;1137;-77
2022/06/18 14:10:27;;;;;;;;;;;;;;;;;;5090937;27;1192;-77
2022/06/18 14:13:01;;;;;;;;;;;;;;;;;;5108460;27;1325;-77
2022/06/18 14:15:32;;;;;;;;;;;;;;;;;;5145737;27;790;-77
2022/06/18 14:17:58;;;;;;;;;;;;;;;;;;5131396;27;1885;-78
2022/06/18 14:20:26;;;;;;;;;;;;;;;;;;5149373;27;750;-78
2022/06/18 14:23:05;;;;;;;;;;;;;;;;;;5149471;27;872;-79
2022/06/18 14:25:56;;;;;;;;;;;;;;;;;;5130615;27;1173;-77
2022/06/18 14:28:22;;;;;;;;;;;;;;;;;;5129365;27;1331;-76
2022/06/18 14:30:53;;;;;;;;;;;;;;;;;;5124747;27;1213;-76
2022/06/18 14:33:31;;;;;;;;;;;;;;;;;;5150001;27;793;-76
2022/06/18 14:36:02;;;;;;;;;;;;;;;;;;5126453;27;1308;-77
2022/06/18 14:38:32;;;;;;;;;;;;;;;;;;5148913;27;1955;-77
2022/06/18 14:43:41;;;;;;;;;;;;;;;;;;5146012;27;1174;-76
2022/06/18 14:46:18;;;;;;;;;;;;;;;;;;5119319;27;1389;-78
2022/06/18 14:49:02;;;;;;;;;;;;;;;;;;5110004;27;1281;-77
2022/06/18 14:51:51;;;;;;;;;;;;;;;;;;5119846;27;1245;-75
2022/06/18 14:54:28;;;;;;;;;;;;;;;;;;5129163;27;1459;-75
2022/06/18 14:57:15;;;;;;;;;;;;;;;;;;5133686;27;1123;-76
2022/06/18 14:59:49;;;;;;;;;;;;;;;;;;5113421;27;1922;-76
2022/06/18 15:02:18;;;;;;;;;;;;;;;;;;5127375;27;1274;-75
2022/06/18 15:04:49;;;;;;;;;;;;;;;;;;5129334;27;1186;-76
2022/06/18 15:07:14;;;;;;;;;;;;;;;;;;5148116;27;1218;-75
2022/06/18 15:09:46;;;;;;;;;;;;;;;;;;5102016;27;1304;-77
2022/06/18 15:12:13;;;;;;;;;;;;;;;;;;5106054;27;1360;-76
2022/06/18 15:14:44;;;;;;;;;;;;;;;;;;5126774;27;1185;-75
2022/06/18 15:20:32;;;;;;;;;;;;;;;;;;5130041;27;1893;-75
2022/06/18 15:25:33;;;;;;;;;;;;;;;;;;5126557;27;1190;-76
2022/06/18 15:28:03;;;;;;;;;;;;;;;;;;5105945;27;1191;-76
2022/06/18 15:30:30;;;;;;;;;;;;;;;;;;5106653;27;1186;-76
2022/06/18 15:32:57;;;;;;;;;;;;;;;;;;5118709;27;1191;-76
2022/06/18 15:35:26;;;;;;;;;;;;;;;;;;5128693;27;1215;-76
2022/06/18 15:37:53;;;;;;;;;;;;;;;;;;5127461;27;1893;-75
2022/06/18 15:40:23;;;;;;;;;;;;;;;;;;5147024;27;1419;-76
2022/06/18 15:42:48;;;;;;;;;;;;;;;;;;5123914;27;1171;-77
2022/06/18 15:45:33;;;;;;;;;;;;;;;;;;5102458;27;1280;-76
2022/06/18 15:48:00;;;;;;;;;;;;;;;;;;5120336;27;1341;-76
2022/06/18 15:50:27;;;;;;;;;;;;;;;;;;5133859;27;1139;-77
2022/06/18 15:52:55;;;;;;;;;;;;;;;;;;5122199;27;1205;-76
2022/06/18 15:55:24;;;;;;;;;;;;;;;;;;5128807;27;1357;-77
2022/06/18 15:57:49;;;;;;;;;;;;;;;;;;5124713;27;1984;-76
2022/06/18 16:00:21;;;;;;;;;;;;;;;;;;5106521;27;1289;-75
2022/06/18 16:02:47;;;;;;;;;;;;;;;;;;5104167;27;1198;-76
2022/06/18 16:05:14;;;;;;;;;;;;;;;;;;5090537;27;1325;-76
2022/06/18 16:07:53;;;;;;;;;;;;;;;;;;5125375;27;1490;-79
2022/06/18 16:10:30;;;;;;;;;;;;;;;;;;5107580;27;1256;-81
2022/06/18 16:13:04;;;;;;;;;;;;;;;;;;5104680;27;1189;-76
2022/06/18 16:15:29;;;;;;;;;;;;;;;;;;5114438;27;1309;-78
2022/06/18 16:17:55;;;;;;;;;;;;;;;;;;5141524;27;1964;-79
2022/06/18 16:20:25;;;;;;;;;;;;;;;;;;5104154;27;1250;-77
2022/06/18 16:22:54;;;;;;;;;;;;;;;;;;5113451;27;1260;-78
2022/06/18 16:25:22;;;;;;;;;;;;;;;;;;5127403;27;1241;-78
2022/06/18 16:27:55;;;;;;;;;;;;;;;;;;5116865;27;1292;-76
2022/06/18 16:30:24;;;;;;;;;;;;;;;;;;5106217;27;1079;-74
2022/06/18 16:33:06;;;;;;;;;;;;;;;;;;5121566;27;1166;-75
2022/06/18 16:35:31;;;;;;;;;;;;;;;;;;5125471;27;1166;-75
2022/06/18 16:38:16;;;;;;;;;;;;;;;;;;5087576;27;1968;-75
2022/06/18 16:40:42;;;;;;;;;;;;;;;;;;5105341;27;1258;-75
2022/06/18 16:43:12;;;;;;;;;;;;;;;;;;5098306;27;1315;-77
2022/06/18 16:45:39;;;;;;;;;;;;;;;;;;5120880;27;1237;-76
2022/06/18 16:48:12;;;;;;;;;;;;;;;;;;5144992;27;1185;-77
2022/06/18 16:50:46;;;;;;;;;;;;;;;;;;5122766;27;1324;-79
2022/06/18 16:53:24;;;;;;;;;;;;;;;;;;5108374;27;1099;-78
2022/06/18 16:55:51;;;;;;;;;;;;;;;;;;5105100;27;1159;-77
2022/06/18 16:58:16;;;;;;;;;;;;;;;;;;5106462;27;2328;-76
2022/06/18 17:00:44;;;;;;;;;;;;;;;;;;5124243;27;1213;-76
2022/06/18 17:03:10;;;;;;;;;;;;;;;;;;5106899;27;1188;-76
2022/06/18 17:05:41;;;;;;;;;;;;;;;;;;5145541;27;1122;-76
2022/06/18 17:08:07;;;;;;;;;;;;;;;;;;5125972;27;1130;-77
2022/06/18 17:10:33;;;;;;;;;;;;;;;;;;5147120;27;1182;-77
2022/06/18 17:12:58;;;;;;;;;;;;;;;;;;5124986;27;1134;-76
2022/06/18 17:15:23;;;;;;;;;;;;;;;;;;5110042;27;1119;-78
2022/06/18 17:17:49;;;;;;;;;;;;;;;;;;5121692;27;1217;-77
2022/06/18 17:20:27;;;;;;;;;;;;;;;;;;5094600;27;1929;-78
2022/06/18 17:22:53;;;;;;;;;;;;;;;;;;5141610;27;1186;-76
2022/06/18 17:33:34;;;;;;;;;;;;;;;;;;5115801;27;1015;-78
2022/06/18 17:36:00;;;;;;;;;;;;;;;;;;5138799;27;1096;-77
2022/06/18 17:38:27;;;;;;;;;;;;;;;;;;5108165;27;1886;-78
2022/06/18 17:41:03;;;;;;;;;;;;;;;;;;5124771;27;1336;-78
2022/06/18 17:43:29;;;;;;;;;;;;;;;;;;5104433;27;1309;-76
2022/06/18 17:45:54;;;;;;;;;;;;;;;;;;5119879;27;1238;-76
2022/06/18 17:48:20;;;;;;;;;;;;;;;;;;5122737;27;1218;-75
2022/06/18 17:50:45;;;;;;;;;;;;;;;;;;5105974;27;1291;-75
2022/06/18 17:53:11;;;;;;;;;;;;;;;;;;5104139;27;1218;-75
2022/06/18 17:55:37;;;;;;;;;;;;;;;;;;5105679;27;1183;-75